Osnabrock, North Dakota
Current Conditions -  °F | °C
As of 9:15 PM on Monday 26 Jan 2015 (Local Time) from KD55 Reporting Station
Moderate Fog Moderate Fog  
Wind Chill: 15°   Ceiling: 200
Heat Index: 21°   Visibility: 0.25mi
Dew Point: 19°   Wind: 5mph
Humidity: 93%   Direction: 170°S
Pressure: 29.95"   Gusts: NA
Location:  48.67°N, 98.15°W
Report Text: KD55 270315Z AUTO 17004KT 1/4SM FZFG VV002 M06/M07 A2995 RMK AO2
Loading
Personal Weather Stations






























Interactive Weather Map New forecast layout! Learn more

10-Day Weather Forecast

Advertisements
Track Severe Weather on mobile